sensor_id;sensor_type;location;lat;lon;timestamp;P1;durP1;ratioP1;P2;durP2;ratioP2
19907;SDS011;10116;53.112;7.356;2024-01-30T00:01:14;3.83;;;3.53;;
19907;SDS011;10116;53.112;7.356;2024-01-30T00:03:40;4.17;;;3.90;;
19907;SDS011;10116;53.112;7.356;2024-01-30T00:06:07;4.10;;;3.70;;
19907;SDS011;10116;53.112;7.356;2024-01-30T00:08:33;3.70;;;3.40;;
19907;SDS011;10116;53.112;7.356;2024-01-30T00:10:59;3.60;;;3.40;;
19907;SDS011;10116;53.112;7.356;2024-01-30T00:13:24;3.53;;;3.33;;
19907;SDS011;10116;53.112;7.356;2024-01-30T00:15:50;4.20;;;3.90;;
19907;SDS011;10116;53.112;7.356;2024-01-30T00:18:16;3.67;;;3.37;;
19907;SDS011;10116;53.112;7.356;2024-01-30T00:20:41;4.40;;;4.10;;
19907;SDS011;10116;53.112;7.356;2024-01-30T00:23:08;4.13;;;3.80;;
19907;SDS011;10116;53.112;7.356;2024-01-30T00:25:33;3.57;;;3.27;;
19907;SDS011;10116;53.112;7.356;2024-01-30T00:27:59;4.33;;;3.90;;
19907;SDS011;10116;53.112;7.356;2024-01-30T00:30:25;4.10;;;3.70;;
19907;SDS011;10116;53.112;7.356;2024-01-30T00:32:50;4.30;;;3.90;;
19907;SDS011;10116;53.112;7.356;2024-01-30T00:35:16;3.30;;;3.13;;
19907;SDS011;10116;53.112;7.356;2024-01-30T00:37:42;3.30;;;3.10;;
19907;SDS011;10116;53.112;7.356;2024-01-30T00:40:08;4.00;;;3.73;;
19907;SDS011;10116;53.112;7.356;2024-01-30T00:42:35;4.40;;;4.00;;
19907;SDS011;10116;53.112;7.356;2024-01-30T00:45:01;4.00;;;3.67;;
19907;SDS011;10116;53.112;7.356;2024-01-30T00:47:26;4.17;;;3.80;;
19907;SDS011;10116;53.112;7.356;2024-01-30T00:49:54;3.67;;;3.47;;
19907;SDS011;10116;53.112;7.356;2024-01-30T00:52:19;3.67;;;3.37;;
19907;SDS011;10116;53.112;7.356;2024-01-30T00:54:45;4.20;;;3.70;;
19907;SDS011;10116;53.112;7.356;2024-01-30T00:57:10;3.90;;;3.50;;
19907;SDS011;10116;53.112;7.356;2024-01-30T00:59:36;3.70;;;3.50;;
19907;SDS011;10116;53.112;7.356;2024-01-30T01:02:02;4.13;;;3.80;;
19907;SDS011;10116;53.112;7.356;2024-01-30T01:04:29;3.80;;;3.50;;
19907;SDS011;10116;53.112;7.356;2024-01-30T01:06:54;3.80;;;3.50;;
19907;SDS011;10116;53.112;7.356;2024-01-30T01:09:20;3.30;;;3.13;;
19907;SDS011;10116;53.112;7.356;2024-01-30T01:11:45;4.00;;;3.60;;
19907;SDS011;10116;53.112;7.356;2024-01-30T01:14:11;4.37;;;4.07;;
19907;SDS011;10116;53.112;7.356;2024-01-30T01:16:37;4.10;;;3.80;;
19907;SDS011;10116;53.112;7.356;2024-01-30T01:19:02;4.17;;;3.87;;
19907;SDS011;10116;53.112;7.356;2024-01-30T01:21:28;4.07;;;3.77;;
19907;SDS011;10116;53.112;7.356;2024-01-30T01:23:54;4.07;;;3.77;;
19907;SDS011;10116;53.112;7.356;2024-01-30T01:26:19;3.33;;;3.13;;
19907;SDS011;10116;53.112;7.356;2024-01-30T01:28:46;9.20;;;4.20;;
19907;SDS011;10116;53.112;7.356;2024-01-30T01:31:12;3.90;;;3.60;;
19907;SDS011;10116;53.112;7.356;2024-01-30T01:33:37;4.00;;;3.63;;
19907;SDS011;10116;53.112;7.356;2024-01-30T01:36:03;3.00;;;2.90;;
19907;SDS011;10116;53.112;7.356;2024-01-30T01:38:29;3.43;;;3.23;;
19907;SDS011;10116;53.112;7.356;2024-01-30T01:40:54;4.03;;;3.63;;
19907;SDS011;10116;53.112;7.356;2024-01-30T01:43:20;3.83;;;3.43;;
19907;SDS011;10116;53.112;7.356;2024-01-30T01:45:46;4.40;;;3.90;;
19907;SDS011;10116;53.112;7.356;2024-01-30T01:48:12;4.40;;;4.00;;
19907;SDS011;10116;53.112;7.356;2024-01-30T01:50:38;4.83;;;4.10;;
19907;SDS011;10116;53.112;7.356;2024-01-30T01:53:05;3.97;;;3.67;;
19907;SDS011;10116;53.112;7.356;2024-01-30T01:55:33;5.50;;;4.10;;
19907;SDS011;10116;53.112;7.356;2024-01-30T01:58:00;3.93;;;3.60;;
19907;SDS011;10116;53.112;7.356;2024-01-30T02:00:26;3.90;;;3.60;;
19907;SDS011;10116;53.112;7.356;2024-01-30T02:02:53;4.00;;;3.70;;
19907;SDS011;10116;53.112;7.356;2024-01-30T02:05:20;3.50;;;3.30;;
19907;SDS011;10116;53.112;7.356;2024-01-30T02:07:46;8.13;;;3.70;;
19907;SDS011;10116;53.112;7.356;2024-01-30T02:10:12;3.57;;;3.27;;
19907;SDS011;10116;53.112;7.356;2024-01-30T02:12:38;3.67;;;3.37;;
19907;SDS011;10116;53.112;7.356;2024-01-30T02:15:05;3.73;;;3.43;;
19907;SDS011;10116;53.112;7.356;2024-01-30T02:17:32;4.17;;;3.87;;
19907;SDS011;10116;53.112;7.356;2024-01-30T02:19:58;4.80;;;4.23;;
19907;SDS011;10116;53.112;7.356;2024-01-30T02:22:24;3.77;;;3.43;;
19907;SDS011;10116;53.112;7.356;2024-01-30T02:24:49;4.30;;;3.67;;
19907;SDS011;10116;53.112;7.356;2024-01-30T02:27:15;3.77;;;3.47;;
19907;SDS011;10116;53.112;7.356;2024-01-30T02:29:40;4.50;;;4.10;;
19907;SDS011;10116;53.112;7.356;2024-01-30T02:32:06;4.07;;;3.77;;
19907;SDS011;10116;53.112;7.356;2024-01-30T02:34:32;4.53;;;4.13;;
19907;SDS011;10116;53.112;7.356;2024-01-30T02:36:58;3.90;;;3.60;;
19907;SDS011;10116;53.112;7.356;2024-01-30T02:39:24;5.47;;;3.40;;
19907;SDS011;10116;53.112;7.356;2024-01-30T02:41:50;3.57;;;3.37;;
19907;SDS011;10116;53.112;7.356;2024-01-30T02:44:16;4.90;;;4.23;;
19907;SDS011;10116;53.112;7.356;2024-01-30T02:46:41;4.00;;;3.60;;
19907;SDS011;10116;53.112;7.356;2024-01-30T02:49:07;3.83;;;3.57;;
19907;SDS011;10116;53.112;7.356;2024-01-30T02:51:32;3.70;;;3.47;;
19907;SDS011;10116;53.112;7.356;2024-01-30T02:53:58;3.77;;;3.47;;
19907;SDS011;10116;53.112;7.356;2024-01-30T02:56:24;3.97;;;3.73;;
19907;SDS011;10116;53.112;7.356;2024-01-30T02:58:50;4.40;;;4.00;;
19907;SDS011;10116;53.112;7.356;2024-01-30T03:01:15;3.80;;;3.50;;
19907;SDS011;10116;53.112;7.356;2024-01-30T03:03:41;4.43;;;4.07;;
19907;SDS011;10116;53.112;7.356;2024-01-30T03:06:08;3.87;;;3.60;;
19907;SDS011;10116;53.112;7.356;2024-01-30T03:08:34;4.70;;;4.30;;
19907;SDS011;10116;53.112;7.356;2024-01-30T03:11:00;3.87;;;3.57;;
19907;SDS011;10116;53.112;7.356;2024-01-30T03:13:26;4.10;;;3.80;;
19907;SDS011;10116;53.112;7.356;2024-01-30T03:15:52;3.70;;;3.37;;
19907;SDS011;10116;53.112;7.356;2024-01-30T03:18:17;4.00;;;3.50;;
19907;SDS011;10116;53.112;7.356;2024-01-30T03:20:43;4.27;;;3.90;;
19907;SDS011;10116;53.112;7.356;2024-01-30T03:23:09;3.27;;;3.07;;
19907;SDS011;10116;53.112;7.356;2024-01-30T03:25:34;4.03;;;3.50;;
19907;SDS011;10116;53.112;7.356;2024-01-30T03:28:00;3.63;;;3.40;;
19907;SDS011;10116;53.112;7.356;2024-01-30T03:30:25;3.80;;;3.50;;
19907;SDS011;10116;53.112;7.356;2024-01-30T03:32:51;3.63;;;3.43;;
19907;SDS011;10116;53.112;7.356;2024-01-30T03:35:18;4.07;;;3.70;;
19907;SDS011;10116;53.112;7.356;2024-01-30T03:37:44;3.83;;;3.53;;
19907;SDS011;10116;53.112;7.356;2024-01-30T03:40:10;3.83;;;3.63;;
19907;SDS011;10116;53.112;7.356;2024-01-30T03:42:36;3.87;;;3.57;;
19907;SDS011;10116;53.112;7.356;2024-01-30T03:45:01;3.70;;;3.50;;
19907;SDS011;10116;53.112;7.356;2024-01-30T03:47:27;4.17;;;3.77;;
19907;SDS011;10116;53.112;7.356;2024-01-30T03:49:53;3.90;;;3.50;;
19907;SDS011;10116;53.112;7.356;2024-01-30T03:52:18;4.57;;;4.17;;
19907;SDS011;10116;53.112;7.356;2024-01-30T03:54:44;4.00;;;3.70;;
19907;SDS011;10116;53.112;7.356;2024-01-30T03:57:10;4.20;;;3.80;;
19907;SDS011;10116;53.112;7.356;2024-01-30T03:59:36;3.93;;;3.47;;
19907;SDS011;10116;53.112;7.356;2024-01-30T04:02:02;4.17;;;3.87;;
19907;SDS011;10116;53.112;7.356;2024-01-30T04:04:27;3.77;;;3.50;;
19907;SDS011;10116;53.112;7.356;2024-01-30T04:06:53;4.27;;;3.97;;
19907;SDS011;10116;53.112;7.356;2024-01-30T04:09:19;3.90;;;3.70;;
19907;SDS011;10116;53.112;7.356;2024-01-30T04:11:44;5.07;;;3.63;;
19907;SDS011;10116;53.112;7.356;2024-01-30T04:14:10;3.97;;;3.77;;
19907;SDS011;10116;53.112;7.356;2024-01-30T04:16:36;3.80;;;3.43;;
19907;SDS011;10116;53.112;7.356;2024-01-30T04:19:01;4.00;;;3.70;;
19907;SDS011;10116;53.112;7.356;2024-01-30T04:21:27;3.67;;;3.37;;
19907;SDS011;10116;53.112;7.356;2024-01-30T04:23:53;3.53;;;3.33;;
19907;SDS011;10116;53.112;7.356;2024-01-30T04:26:18;3.83;;;3.53;;
19907;SDS011;10116;53.112;7.356;2024-01-30T04:28:44;3.50;;;3.30;;
19907;SDS011;10116;53.112;7.356;2024-01-30T04:31:10;3.73;;;3.53;;
19907;SDS011;10116;53.112;7.356;2024-01-30T04:33:36;3.63;;;3.43;;
19907;SDS011;10116;53.112;7.356;2024-01-30T04:36:02;3.30;;;3.10;;
19907;SDS011;10116;53.112;7.356;2024-01-30T04:38:28;3.73;;;3.50;;
19907;SDS011;10116;53.112;7.356;2024-01-30T04:40:54;3.73;;;3.53;;
19907;SDS011;10116;53.112;7.356;2024-01-30T04:43:20;3.50;;;3.20;;
19907;SDS011;10116;53.112;7.356;2024-01-30T04:45:46;3.87;;;3.57;;
19907;SDS011;10116;53.112;7.356;2024-01-30T04:48:12;2.83;;;2.73;;
19907;SDS011;10116;53.112;7.356;2024-01-30T04:50:38;3.17;;;2.97;;
19907;SDS011;10116;53.112;7.356;2024-01-30T04:53:04;4.13;;;3.83;;
19907;SDS011;10116;53.112;7.356;2024-01-30T04:55:30;3.23;;;3.03;;
19907;SDS011;10116;53.112;7.356;2024-01-30T04:57:55;3.63;;;3.33;;
19907;SDS011;10116;53.112;7.356;2024-01-30T05:00:21;3.40;;;3.20;;
19907;SDS011;10116;53.112;7.356;2024-01-30T05:02:46;3.47;;;3.27;;
19907;SDS011;10116;53.112;7.356;2024-01-30T05:05:12;3.37;;;3.17;;
19907;SDS011;10116;53.112;7.356;2024-01-30T05:07:38;3.50;;;3.30;;
19907;SDS011;10116;53.112;7.356;2024-01-30T05:10:06;3.17;;;2.97;;
19907;SDS011;10116;53.112;7.356;2024-01-30T05:12:32;3.50;;;3.30;;
19907;SDS011;10116;53.112;7.356;2024-01-30T05:14:57;3.47;;;3.27;;
19907;SDS011;10116;53.112;7.356;2024-01-30T05:17:23;3.60;;;3.33;;
19907;SDS011;10116;53.112;7.356;2024-01-30T05:19:49;3.70;;;3.40;;
19907;SDS011;10116;53.112;7.356;2024-01-30T05:22:14;3.93;;;3.63;;
19907;SDS011;10116;53.112;7.356;2024-01-30T05:24:41;4.20;;;3.83;;
19907;SDS011;10116;53.112;7.356;2024-01-30T05:27:07;3.20;;;3.00;;
19907;SDS011;10116;53.112;7.356;2024-01-30T05:29:33;2.70;;;2.60;;
19907;SDS011;10116;53.112;7.356;2024-01-30T05:31:59;3.60;;;3.30;;
19907;SDS011;10116;53.112;7.356;2024-01-30T05:34:24;3.63;;;3.40;;
19907;SDS011;10116;53.112;7.356;2024-01-30T05:36:50;3.97;;;3.77;;
19907;SDS011;10116;53.112;7.356;2024-01-30T05:39:16;3.70;;;3.50;;
19907;SDS011;10116;53.112;7.356;2024-01-30T05:41:41;3.70;;;3.50;;
19907;SDS011;10116;53.112;7.356;2024-01-30T05:44:07;3.67;;;3.37;;
19907;SDS011;10116;53.112;7.356;2024-01-30T05:46:33;4.27;;;3.97;;
19907;SDS011;10116;53.112;7.356;2024-01-30T05:49:00;4.30;;;3.93;;
19907;SDS011;10116;53.112;7.356;2024-01-30T05:51:26;3.43;;;3.20;;
19907;SDS011;10116;53.112;7.356;2024-01-30T05:53:53;3.37;;;3.17;;
19907;SDS011;10116;53.112;7.356;2024-01-30T05:56:18;4.30;;;3.20;;
19907;SDS011;10116;53.112;7.356;2024-01-30T05:58:44;3.70;;;3.40;;
19907;SDS011;10116;53.112;7.356;2024-01-30T06:01:10;3.77;;;3.53;;
19907;SDS011;10116;53.112;7.356;2024-01-30T06:03:36;3.50;;;3.30;;
19907;SDS011;10116;53.112;7.356;2024-01-30T06:06:02;3.50;;;3.20;;
19907;SDS011;10116;53.112;7.356;2024-01-30T06:08:28;3.17;;;2.97;;
19907;SDS011;10116;53.112;7.356;2024-01-30T06:10:53;3.63;;;3.33;;
19907;SDS011;10116;53.112;7.356;2024-01-30T06:13:19;3.70;;;3.50;;
19907;SDS011;10116;53.112;7.356;2024-01-30T06:15:45;3.47;;;3.27;;
19907;SDS011;10116;53.112;7.356;2024-01-30T06:18:10;4.53;;;3.70;;
19907;SDS011;10116;53.112;7.356;2024-01-30T06:20:36;3.73;;;3.43;;
19907;SDS011;10116;53.112;7.356;2024-01-30T06:23:01;3.90;;;3.47;;
19907;SDS011;10116;53.112;7.356;2024-01-30T06:25:27;3.37;;;3.07;;
19907;SDS011;10116;53.112;7.356;2024-01-30T06:27:53;3.67;;;3.20;;
19907;SDS011;10116;53.112;7.356;2024-01-30T06:30:18;3.80;;;3.50;;
19907;SDS011;10116;53.112;7.356;2024-01-30T06:32:44;3.70;;;3.40;;
19907;SDS011;10116;53.112;7.356;2024-01-30T06:35:09;4.33;;;3.87;;
19907;SDS011;10116;53.112;7.356;2024-01-30T06:37:35;4.00;;;3.70;;
19907;SDS011;10116;53.112;7.356;2024-01-30T06:40:03;4.10;;;3.80;;
19907;SDS011;10116;53.112;7.356;2024-01-30T06:42:30;4.20;;;3.90;;
19907;SDS011;10116;53.112;7.356;2024-01-30T06:44:56;4.37;;;4.00;;
19907;SDS011;10116;53.112;7.356;2024-01-30T06:47:22;4.30;;;4.00;;
19907;SDS011;10116;53.112;7.356;2024-01-30T06:49:48;4.30;;;3.90;;
19907;SDS011;10116;53.112;7.356;2024-01-30T06:52:13;4.43;;;4.13;;
19907;SDS011;10116;53.112;7.356;2024-01-30T06:54:39;5.70;;;3.70;;
19907;SDS011;10116;53.112;7.356;2024-01-30T06:57:05;4.07;;;3.80;;
19907;SDS011;10116;53.112;7.356;2024-01-30T06:59:34;4.73;;;4.30;;
19907;SDS011;10116;53.112;7.356;2024-01-30T07:02:00;4.90;;;4.50;;
19907;SDS011;10116;53.112;7.356;2024-01-30T07:04:25;11.90;;;4.40;;
19907;SDS011;10116;53.112;7.356;2024-01-30T07:06:51;4.73;;;4.33;;
19907;SDS011;10116;53.112;7.356;2024-01-30T07:09:18;5.10;;;4.70;;
19907;SDS011;10116;53.112;7.356;2024-01-30T07:11:44;5.03;;;4.63;;
19907;SDS011;10116;53.112;7.356;2024-01-30T07:14:09;4.80;;;4.40;;
19907;SDS011;10116;53.112;7.356;2024-01-30T07:16:35;5.37;;;4.97;;
19907;SDS011;10116;53.112;7.356;2024-01-30T07:19:01;5.40;;;4.90;;
19907;SDS011;10116;53.112;7.356;2024-01-30T07:21:27;5.50;;;5.00;;
19907;SDS011;10116;53.112;7.356;2024-01-30T07:23:56;5.73;;;4.60;;
19907;SDS011;10116;53.112;7.356;2024-01-30T07:26:22;4.87;;;4.47;;
19907;SDS011;10116;53.112;7.356;2024-01-30T07:28:48;5.23;;;4.70;;
19907;SDS011;10116;53.112;7.356;2024-01-30T07:31:15;4.50;;;4.20;;
19907;SDS011;10116;53.112;7.356;2024-01-30T07:33:40;5.67;;;5.07;;
19907;SDS011;10116;53.112;7.356;2024-01-30T07:36:06;4.90;;;4.50;;
19907;SDS011;10116;53.112;7.356;2024-01-30T07:38:32;4.97;;;4.57;;
19907;SDS011;10116;53.112;7.356;2024-01-30T07:40:57;5.40;;;5.00;;
19907;SDS011;10116;53.112;7.356;2024-01-30T07:43:23;4.70;;;4.30;;
19907;SDS011;10116;53.112;7.356;2024-01-30T07:45:49;5.00;;;4.43;;
19907;SDS011;10116;53.112;7.356;2024-01-30T07:48:14;5.10;;;4.60;;
19907;SDS011;10116;53.112;7.356;2024-01-30T07:50:40;5.13;;;4.73;;
19907;SDS011;10116;53.112;7.356;2024-01-30T07:53:06;5.10;;;4.70;;
19907;SDS011;10116;53.112;7.356;2024-01-30T07:55:32;5.13;;;4.40;;
19907;SDS011;10116;53.112;7.356;2024-01-30T07:57:57;6.07;;;4.60;;
19907;SDS011;10116;53.112;7.356;2024-01-30T08:00:26;4.43;;;4.07;;
19907;SDS011;10116;53.112;7.356;2024-01-30T08:02:54;5.60;;;4.80;;
19907;SDS011;10116;53.112;7.356;2024-01-30T08:05:20;4.93;;;4.53;;
19907;SDS011;10116;53.112;7.356;2024-01-30T08:07:47;4.93;;;4.50;;
19907;SDS011;10116;53.112;7.356;2024-01-30T08:10:14;4.60;;;4.30;;
19907;SDS011;10116;53.112;7.356;2024-01-30T08:12:40;4.70;;;4.30;;
19907;SDS011;10116;53.112;7.356;2024-01-30T08:15:06;5.43;;;4.90;;
19907;SDS011;10116;53.112;7.356;2024-01-30T08:17:32;5.10;;;4.70;;
19907;SDS011;10116;53.112;7.356;2024-01-30T08:19:58;6.77;;;5.20;;
19907;SDS011;10116;53.112;7.356;2024-01-30T08:22:24;5.47;;;4.20;;
19907;SDS011;10116;53.112;7.356;2024-01-30T08:24:50;4.67;;;4.27;;
19907;SDS011;10116;53.112;7.356;2024-01-30T08:27:15;5.50;;;4.90;;
19907;SDS011;10116;53.112;7.356;2024-01-30T08:29:41;4.93;;;4.53;;
19907;SDS011;10116;53.112;7.356;2024-01-30T08:32:07;4.50;;;4.20;;
19907;SDS011;10116;53.112;7.356;2024-01-30T08:34:33;6.90;;;4.47;;
19907;SDS011;10116;53.112;7.356;2024-01-30T08:36:58;5.10;;;4.60;;
19907;SDS011;10116;53.112;7.356;2024-01-30T08:39:24;4.53;;;4.10;;
19907;SDS011;10116;53.112;7.356;2024-01-30T08:41:50;4.97;;;4.47;;
19907;SDS011;10116;53.112;7.356;2024-01-30T08:44:16;4.40;;;4.00;;
19907;SDS011;10116;53.112;7.356;2024-01-30T08:46:42;4.97;;;4.47;;
19907;SDS011;10116;53.112;7.356;2024-01-30T08:49:09;5.00;;;4.50;;
19907;SDS011;10116;53.112;7.356;2024-01-30T08:51:35;4.47;;;3.63;;
19907;SDS011;10116;53.112;7.356;2024-01-30T08:54:01;5.27;;;4.67;;
19907;SDS011;10116;53.112;7.356;2024-01-30T08:56:27;6.50;;;4.40;;
19907;SDS011;10116;53.112;7.356;2024-01-30T08:58:53;5.33;;;4.00;;
19907;SDS011;10116;53.112;7.356;2024-01-30T09:01:19;8.13;;;4.37;;
19907;SDS011;10116;53.112;7.356;2024-01-30T09:03:45;5.37;;;3.67;;
19907;SDS011;10116;53.112;7.356;2024-01-30T09:06:11;3.90;;;3.50;;
19907;SDS011;10116;53.112;7.356;2024-01-30T09:08:37;3.87;;;3.57;;
19907;SDS011;10116;53.112;7.356;2024-01-30T09:11:10;4.07;;;3.77;;
19907;SDS011;10116;53.112;7.356;2024-01-30T09:13:39;5.83;;;4.00;;
19907;SDS011;10116;53.112;7.356;2024-01-30T09:16:05;3.50;;;3.30;;
19907;SDS011;10116;53.112;7.356;2024-01-30T09:18:32;4.40;;;4.00;;
19907;SDS011;10116;53.112;7.356;2024-01-30T09:20:57;4.30;;;3.40;;
19907;SDS011;10116;53.112;7.356;2024-01-30T09:23:23;4.27;;;3.90;;
19907;SDS011;10116;53.112;7.356;2024-01-30T09:25:49;3.90;;;3.60;;
19907;SDS011;10116;53.112;7.356;2024-01-30T09:28:15;3.90;;;3.50;;
19907;SDS011;10116;53.112;7.356;2024-01-30T09:30:42;5.90;;;4.07;;
19907;SDS011;10116;53.112;7.356;2024-01-30T09:33:07;3.73;;;3.43;;
19907;SDS011;10116;53.112;7.356;2024-01-30T09:35:33;4.60;;;4.23;;
19907;SDS011;10116;53.112;7.356;2024-01-30T09:37:59;4.63;;;3.67;;
19907;SDS011;10116;53.112;7.356;2024-01-30T09:40:24;4.07;;;3.77;;
19907;SDS011;10116;53.112;7.356;2024-01-30T09:42:50;4.23;;;3.50;;
19907;SDS011;10116;53.112;7.356;2024-01-30T09:45:23;3.70;;;3.50;;
19907;SDS011;10116;53.112;7.356;2024-01-30T09:47:50;4.30;;;3.70;;
19907;SDS011;10116;53.112;7.356;2024-01-30T09:50:16;3.67;;;3.43;;
19907;SDS011;10116;53.112;7.356;2024-01-30T09:52:45;3.60;;;3.30;;
19907;SDS011;10116;53.112;7.356;2024-01-30T09:55:12;4.80;;;4.37;;
19907;SDS011;10116;53.112;7.356;2024-01-30T09:57:38;7.13;;;3.77;;
19907;SDS011;10116;53.112;7.356;2024-01-30T10:00:04;3.60;;;3.30;;
19907;SDS011;10116;53.112;7.356;2024-01-30T10:02:34;3.40;;;3.20;;
19907;SDS011;10116;53.112;7.356;2024-01-30T10:05:00;5.00;;;3.27;;
19907;SDS011;10116;53.112;7.356;2024-01-30T10:07:26;3.67;;;3.10;;
19907;SDS011;10116;53.112;7.356;2024-01-30T10:09:52;3.87;;;3.40;;
19907;SDS011;10116;53.112;7.356;2024-01-30T10:12:20;3.50;;;3.30;;
19907;SDS011;10116;53.112;7.356;2024-01-30T10:14:45;4.10;;;3.77;;
19907;SDS011;10116;53.112;7.356;2024-01-30T10:17:11;41.83;;;4.70;;
19907;SDS011;10116;53.112;7.356;2024-01-30T10:19:41;4.30;;;3.40;;
19907;SDS011;10116;53.112;7.356;2024-01-30T10:22:07;5.37;;;3.50;;
19907;SDS011;10116;53.112;7.356;2024-01-30T10:24:34;4.93;;;3.90;;
19907;SDS011;10116;53.112;7.356;2024-01-30T10:27:01;4.50;;;3.47;;
19907;SDS011;10116;53.112;7.356;2024-01-30T10:29:27;3.57;;;3.37;;
19907;SDS011;10116;53.112;7.356;2024-01-30T10:32:02;3.77;;;3.47;;
19907;SDS011;10116;53.112;7.356;2024-01-30T10:34:29;3.40;;;3.10;;
19907;SDS011;10116;53.112;7.356;2024-01-30T10:37:16;3.77;;;3.47;;
19907;SDS011;10116;53.112;7.356;2024-01-30T10:39:43;4.77;;;3.70;;
19907;SDS011;10116;53.112;7.356;2024-01-30T10:42:28;4.03;;;3.70;;
19907;SDS011;10116;53.112;7.356;2024-01-30T10:44:59;7.10;;;4.43;;
19907;SDS011;10116;53.112;7.356;2024-01-30T10:47:35;4.03;;;3.40;;
19907;SDS011;10116;53.112;7.356;2024-01-30T10:50:04;3.27;;;2.97;;
19907;SDS011;10116;53.112;7.356;2024-01-30T10:52:31;5.53;;;4.20;;
19907;SDS011;10116;53.112;7.356;2024-01-30T10:54:57;4.07;;;3.70;;
19907;SDS011;10116;53.112;7.356;2024-01-30T10:57:24;4.23;;;3.83;;
19907;SDS011;10116;53.112;7.356;2024-01-30T10:59:51;3.53;;;3.33;;
19907;SDS011;10116;53.112;7.356;2024-01-30T11:02:24;5.40;;;3.93;;
19907;SDS011;10116;53.112;7.356;2024-01-30T11:04:54;4.57;;;4.03;;
19907;SDS011;10116;53.112;7.356;2024-01-30T11:07:25;4.63;;;4.10;;
19907;SDS011;10116;53.112;7.356;2024-01-30T11:09:53;4.30;;;3.97;;
19907;SDS011;10116;53.112;7.356;2024-01-30T11:12:32;4.77;;;3.87;;
19907;SDS011;10116;53.112;7.356;2024-01-30T11:17:53;7.70;;;3.57;;
19907;SDS011;10116;53.112;7.356;2024-01-30T11:20:29;6.03;;;3.70;;
19907;SDS011;10116;53.112;7.356;2024-01-30T11:22:56;6.40;;;3.70;;
19907;SDS011;10116;53.112;7.356;2024-01-30T11:25:23;9.33;;;4.27;;
19907;SDS011;10116;53.112;7.356;2024-01-30T11:27:50;4.50;;;3.97;;
19907;SDS011;10116;53.112;7.356;2024-01-30T11:32:58;6.90;;;4.40;;
19907;SDS011;10116;53.112;7.356;2024-01-30T11:35:29;7.00;;;3.60;;
19907;SDS011;10116;53.112;7.356;2024-01-30T11:37:59;3.70;;;3.40;;
19907;SDS011;10116;53.112;7.356;2024-01-30T11:40:27;4.10;;;3.70;;
19907;SDS011;10116;53.112;7.356;2024-01-30T11:42:54;4.20;;;3.80;;
19907;SDS011;10116;53.112;7.356;2024-01-30T11:45:23;3.53;;;3.23;;
19907;SDS011;10116;53.112;7.356;2024-01-30T11:47:58;4.03;;;3.73;;
19907;SDS011;10116;53.112;7.356;2024-01-30T11:50:28;3.13;;;2.93;;
19907;SDS011;10116;53.112;7.356;2024-01-30T11:52:58;3.97;;;3.20;;
19907;SDS011;10116;53.112;7.356;2024-01-30T11:55:28;4.67;;;3.77;;
19907;SDS011;10116;53.112;7.356;2024-01-30T11:57:55;3.40;;;3.20;;
19907;SDS011;10116;53.112;7.356;2024-01-30T12:00:22;4.10;;;3.33;;
19907;SDS011;10116;53.112;7.356;2024-01-30T12:02:54;3.20;;;2.90;;
19907;SDS011;10116;53.112;7.356;2024-01-30T12:05:25;5.60;;;3.83;;
19907;SDS011;10116;53.112;7.356;2024-01-30T12:07:51;4.70;;;3.27;;
19907;SDS011;10116;53.112;7.356;2024-01-30T12:10:17;4.57;;;3.30;;
19907;SDS011;10116;53.112;7.356;2024-01-30T12:12:44;3.23;;;2.97;;
19907;SDS011;10116;53.112;7.356;2024-01-30T12:15:15;2.87;;;2.70;;
19907;SDS011;10116;53.112;7.356;2024-01-30T12:17:41;3.00;;;2.90;;
19907;SDS011;10116;53.112;7.356;2024-01-30T12:20:11;2.90;;;2.80;;
19907;SDS011;10116;53.112;7.356;2024-01-30T12:22:39;5.00;;;2.80;;
19907;SDS011;10116;53.112;7.356;2024-01-30T12:25:20;3.03;;;2.77;;
19907;SDS011;10116;53.112;7.356;2024-01-30T12:27:47;3.33;;;3.00;;
19907;SDS011;10116;53.112;7.356;2024-01-30T12:30:18;3.47;;;3.17;;
19907;SDS011;10116;53.112;7.356;2024-01-30T12:32:45;3.90;;;3.50;;
19907;SDS011;10116;53.112;7.356;2024-01-30T12:35:16;3.50;;;3.20;;
19907;SDS011;10116;53.112;7.356;2024-01-30T12:37:43;2.90;;;2.70;;
19907;SDS011;10116;53.112;7.356;2024-01-30T12:40:15;3.50;;;2.90;;
19907;SDS011;10116;53.112;7.356;2024-01-30T12:42:42;3.90;;;3.10;;
19907;SDS011;10116;53.112;7.356;2024-01-30T12:45:11;3.30;;;3.10;;
19907;SDS011;10116;53.112;7.356;2024-01-30T12:47:36;2.93;;;2.80;;
19907;SDS011;10116;53.112;7.356;2024-01-30T12:50:02;3.07;;;2.87;;
19907;SDS011;10116;53.112;7.356;2024-01-30T12:52:28;5.17;;;3.40;;
19907;SDS011;10116;53.112;7.356;2024-01-30T12:54:54;5.67;;;3.23;;
19907;SDS011;10116;53.112;7.356;2024-01-30T12:57:20;6.47;;;2.83;;
19907;SDS011;10116;53.112;7.356;2024-01-30T12:59:46;2.97;;;2.50;;
19907;SDS011;10116;53.112;7.356;2024-01-30T13:02:12;3.17;;;2.93;;
19907;SDS011;10116;53.112;7.356;2024-01-30T13:04:38;2.73;;;2.43;;
19907;SDS011;10116;53.112;7.356;2024-01-30T13:07:04;3.33;;;2.73;;
19907;SDS011;10116;53.112;7.356;2024-01-30T13:09:30;2.90;;;2.70;;
19907;SDS011;10116;53.112;7.356;2024-01-30T13:11:58;2.90;;;2.70;;
19907;SDS011;10116;53.112;7.356;2024-01-30T13:14:25;3.73;;;3.07;;
19907;SDS011;10116;53.112;7.356;2024-01-30T13:16:50;3.10;;;2.80;;
19907;SDS011;10116;53.112;7.356;2024-01-30T13:19:17;3.30;;;3.00;;
19907;SDS011;10116;53.112;7.356;2024-01-30T13:21:42;3.80;;;2.73;;
19907;SDS011;10116;53.112;7.356;2024-01-30T13:24:08;3.73;;;2.93;;
19907;SDS011;10116;53.112;7.356;2024-01-30T13:26:34;4.03;;;3.50;;
19907;SDS011;10116;53.112;7.356;2024-01-30T13:29:00;2.53;;;2.33;;
19907;SDS011;10116;53.112;7.356;2024-01-30T13:31:26;3.23;;;2.93;;
19907;SDS011;10116;53.112;7.356;2024-01-30T13:33:52;4.27;;;2.80;;
19907;SDS011;10116;53.112;7.356;2024-01-30T13:36:18;2.70;;;2.50;;
19907;SDS011;10116;53.112;7.356;2024-01-30T13:38:44;5.70;;;2.43;;
19907;SDS011;10116;53.112;7.356;2024-01-30T13:41:09;4.13;;;2.60;;
19907;SDS011;10116;53.112;7.356;2024-01-30T13:43:35;2.87;;;2.63;;
19907;SDS011;10116;53.112;7.356;2024-01-30T13:46:01;2.90;;;2.67;;
19907;SDS011;10116;53.112;7.356;2024-01-30T13:48:27;3.37;;;2.77;;
19907;SDS011;10116;53.112;7.356;2024-01-30T13:50:53;4.70;;;2.60;;
19907;SDS011;10116;53.112;7.356;2024-01-30T13:53:19;3.70;;;2.83;;
19907;SDS011;10116;53.112;7.356;2024-01-30T13:55:44;3.27;;;2.97;;
19907;SDS011;10116;53.112;7.356;2024-01-30T13:58:10;3.27;;;2.73;;
19907;SDS011;10116;53.112;7.356;2024-01-30T14:00:36;3.23;;;2.83;;
19907;SDS011;10116;53.112;7.356;2024-01-30T14:03:02;3.37;;;2.80;;
19907;SDS011;10116;53.112;7.356;2024-01-30T14:05:28;2.60;;;2.40;;
19907;SDS011;10116;53.112;7.356;2024-01-30T14:07:54;3.17;;;2.57;;
19907;SDS011;10116;53.112;7.356;2024-01-30T14:10:20;3.30;;;3.10;;
19907;SDS011;10116;53.112;7.356;2024-01-30T14:12:45;3.50;;;2.57;;
19907;SDS011;10116;53.112;7.356;2024-01-30T14:15:13;6.57;;;2.60;;
19907;SDS011;10116;53.112;7.356;2024-01-30T14:17:40;2.63;;;2.43;;
19907;SDS011;10116;53.112;7.356;2024-01-30T14:20:06;2.53;;;2.40;;
19907;SDS011;10116;53.112;7.356;2024-01-30T14:22:33;3.00;;;2.43;;
19907;SDS011;10116;53.112;7.356;2024-01-30T14:24:59;8.07;;;2.00;;
19907;SDS011;10116;53.112;7.356;2024-01-30T14:27:29;2.10;;;2.00;;
19907;SDS011;10116;53.112;7.356;2024-01-30T14:29:55;2.90;;;2.30;;
19907;SDS011;10116;53.112;7.356;2024-01-30T14:32:21;2.03;;;1.93;;
19907;SDS011;10116;53.112;7.356;2024-01-30T14:34:48;4.70;;;2.40;;
19907;SDS011;10116;53.112;7.356;2024-01-30T14:37:14;5.57;;;2.03;;
19907;SDS011;10116;53.112;7.356;2024-01-30T14:39:40;3.30;;;2.20;;
19907;SDS011;10116;53.112;7.356;2024-01-30T14:42:06;3.47;;;2.00;;
19907;SDS011;10116;53.112;7.356;2024-01-30T14:44:32;2.67;;;2.47;;
19907;SDS011;10116;53.112;7.356;2024-01-30T14:46:58;3.07;;;2.27;;
19907;SDS011;10116;53.112;7.356;2024-01-30T14:49:24;3.83;;;2.23;;